Time;durP1;ratioP1;P1;durP2;ratioP2;P2;SDS_P1;SDS_P2;PMS_P1;PMS_P2;Temp;Humidity;BMP_temperature;BMP_pressure;BME280_temperature;BME280_humidity;BME280_pressure;Samples;Min_cycle;Max_cycle;Signal;HPM_P1;HPM_P2
2023/06/04 04:42:39;;;;;;;12.87;9.83;;;;;;;;;;5137477;27;20277;-81
2023/06/04 05:22:28;;;;;;;13.30;10.70;;;;;;;;;;5136760;27;20259;-82
2023/06/04 05:28:03;;;;;;;11.87;9.73;;;;;;;;;;5137513;27;20292;-82
2023/06/04 05:34:01;;;;;;;14.63;10.63;;;;;;;;;;5137542;27;20281;-81
2023/06/04 05:39:47;;;;;;;14.27;9.43;;;;;;;;;;5143625;27;20298;-82
2023/06/04 05:45:35;;;;;;;12.80;9.57;;;;;;;;;;5137772;27;20273;-82
2023/06/04 05:50:09;;;;;;;18.13;9.80;;;12.90;99.90;;;;;;5137293;27;20275;-83
2023/06/04 05:55:07;;;;;;;10.50;8.97;;;;;;;;;;5139161;27;20275;-82
2023/06/04 05:59:55;;;;;;;12.67;10.43;;;13.50;99.90;;;;;;5143275;27;20271;-85
2023/06/04 06:04:37;;;;;;;15.60;9.23;;;13.70;99.90;;;;;;5141023;27;20269;-84
2023/06/04 06:09:25;;;;;;;11.63;8.50;;;13.90;99.90;;;;;;5120053;27;20270;-79
2023/06/04 06:13:17;;;;;;;14.00;8.90;;;13.90;99.90;;;;;;5143773;27;20281;-79
2023/06/04 06:17:13;;;;;;;12.40;8.70;;;14.00;99.90;;;;;;5136347;27;20280;-79
2023/06/04 06:21:11;;;;;;;12.33;8.40;;;14.30;99.90;;;;;;5136423;27;20278;-79
2023/06/04 06:25:12;;;;;;;13.93;8.13;;;14.50;99.90;;;;;;5139079;27;20267;-79
2023/06/04 06:29:10;;;;;;;9.70;8.13;;;14.60;99.90;;;;;;5034409;28;20285;-79
2023/06/04 06:33:11;;;;;;;10.30;7.90;;;15.70;99.90;;;;;;5139329;27;20280;-82
2023/06/04 06:37:09;;;;;;;9.43;7.20;;;15.00;99.90;;;;;;5141009;27;20287;-83
2023/06/04 06:41:08;;;;;;;10.97;7.67;;;15.10;99.90;;;;;;5138288;27;20284;-81
2023/06/04 06:45:06;;;;;;;12.43;8.57;;;15.40;99.90;;;;;;5138057;27;20278;-80
2023/06/04 06:49:04;;;;;;;11.77;7.90;;;15.60;99.90;;;;;;5136837;27;20279;-79
2023/06/04 06:53:04;;;;;;;10.97;7.40;;;15.80;99.90;;;;;;5137038;27;20265;-78
2023/06/04 06:57:03;;;;;;;9.67;6.70;;;16.00;99.90;;;;;;5136004;27;20296;-79
2023/06/04 07:01:02;;;;;;;9.67;6.97;;;16.30;99.90;;;;;;5136752;27;20273;-79
2023/06/04 07:05:03;;;;;;;7.50;6.70;;;16.60;99.90;;;;;;5135183;27;20270;-82
2023/06/04 07:09:01;;;;;;;8.57;7.13;;;16.80;99.90;;;;;;5138063;27;20272;-81
2023/06/04 07:13:01;;;;;;;10.97;7.27;;;17.10;99.90;;;;;;5137361;27;20278;-80
2023/06/04 07:17:01;;;;;;;10.20;7.10;;;17.20;99.90;;;;;;5136782;27;20287;-80
2023/06/04 07:21:00;;;;;;;8.77;6.97;;;17.40;99.90;;;;;;5138766;27;20637;-79
2023/06/04 07:25:00;;;;;;;12.03;7.53;;;17.50;99.90;;;;;;5136913;27;20743;-79
2023/06/04 07:28:59;;;;;;;9.23;7.00;;;17.50;99.90;;;;;;5136973;27;20272;-80
2023/06/04 07:31:25;;;;;;;10.33;7.83;;;17.60;99.90;;;;;;5137021;28;20264;-80
2023/06/04 07:33:50;;;;;;;8.57;6.70;;;17.70;99.90;;;;;;5138182;28;20174;-80
2023/06/04 07:36:16;;;;;;;9.83;5.67;;;17.90;99.90;;;;;;5137425;28;20230;-81
2023/06/04 07:38:43;;;;;;;9.47;6.47;;;18.10;99.90;;;;;;5098344;28;20219;-79
2023/06/04 07:41:09;;;;;;;9.87;6.20;;;18.20;99.90;;;;;;5100200;28;20268;-79
2023/06/04 07:43:35;;;;;;;7.13;5.93;;;18.20;99.90;;;;;;5101008;28;20174;-80
2023/06/04 07:46:02;;;;;;;10.77;6.10;;;18.40;99.90;;;;;;5123296;28;20248;-80
2023/06/04 07:48:30;;;;;;;10.23;6.37;;;18.60;99.90;;;;;;5108519;28;20228;-81
2023/06/04 07:51:00;;;;;;;8.57;6.10;;;18.70;99.90;;;;;;5120174;28;20707;-83
2023/06/04 07:53:27;;;;;;;7.87;5.67;;;18.80;99.90;;;;;;5098863;28;20172;-80
2023/06/04 07:55:54;;;;;;;8.27;6.10;;;18.90;99.90;;;;;;5099084;28;20199;-80
2023/06/04 07:58:19;;;;;;;7.33;6.10;;;19.00;99.90;;;;;;5102012;28;20609;-82
2023/06/04 08:00:45;;;;;;;7.50;5.40;;;19.20;99.90;;;;;;5120442;28;20180;-82
2023/06/04 08:03:11;;;;;;;9.30;5.77;;;19.30;99.90;;;;;;5099937;28;20187;-85
2023/06/04 08:05:36;;;;;;;7.77;5.17;;;19.50;99.90;;;;;;5103990;28;20182;-82
2023/06/04 08:08:03;;;;;;;6.33;5.03;;;19.60;99.90;;;;;;5100133;28;20227;-82
2023/06/04 08:10:29;;;;;;;8.83;5.50;;;19.80;99.90;;;;;;5096786;28;20207;-80
2023/06/04 08:12:56;;;;;;;6.37;5.70;;;19.90;99.90;;;;;;5100553;28;20176;-82
2023/06/04 08:15:22;;;;;;;8.67;5.80;;;20.10;99.90;;;;;;5116612;28;20172;-82
2023/06/04 08:17:48;;;;;;;7.37;5.30;;;20.20;99.90;;;;;;5100113;28;20206;-81
2023/06/04 08:20:13;;;;;;;8.63;5.93;;;20.40;99.90;;;;;;5119807;28;20168;-82
2023/06/04 08:22:40;;;;;;;6.33;4.90;;;20.50;99.90;;;;;;5118176;28;20348;-84
2023/06/04 08:25:08;;;;;;;6.47;5.33;;;20.60;99.90;;;;;;5100511;28;20183;-84
2023/06/04 08:27:34;;;;;;;8.67;5.40;;;20.60;99.90;;;;;;5101435;28;20216;-86
2023/06/04 08:30:00;;;;;;;7.00;4.90;;;20.80;99.90;;;;;;5099841;28;20214;-85
2023/06/04 08:32:25;;;;;;;7.57;4.63;;;20.90;99.90;;;;;;5096956;28;20199;-82
2023/06/04 08:34:51;;;;;;;6.50;4.50;;;21.10;99.90;;;;;;5096462;28;20174;-80
2023/06/04 08:37:17;;;;;;;5.80;4.80;;;21.30;99.90;;;;;;5114778;28;20207;-83
2023/06/04 08:39:43;;;;;;;5.83;4.47;;;21.40;99.90;;;;;;5105144;28;20548;-84
2023/06/04 08:42:30;;;;;;;6.63;4.63;;;21.60;99.90;;;;;;5084178;28;20197;-85
2023/06/04 08:44:57;;;;;;;5.40;4.60;;;21.80;99.90;;;;;;5084169;28;20259;-82
2023/06/04 08:47:26;;;;;;;5.20;4.40;;;21.80;99.90;;;;;;5104358;28;20207;-79
2023/06/04 08:49:53;;;;;;;9.20;5.03;;;21.90;99.90;;;;;;5087979;28;20222;-83
2023/06/04 08:52:21;;;;;;;6.10;4.67;;;22.00;99.90;;;;;;5088607;28;20179;-86
2023/06/04 08:54:52;;;;;;;5.83;3.67;;;22.00;99.90;;;;;;5087687;28;20180;-84
2023/06/04 08:57:19;;;;;;;4.70;3.93;;;22.00;99.90;;;;;;5085468;28;20229;-82
2023/06/04 08:59:48;;;;;;;4.93;3.53;;;21.80;99.90;;;;;;5085034;28;20199;-78
2023/06/04 09:02:17;;;;;;;4.23;3.50;;;22.20;99.90;;;;;;5102229;28;20192;-80
2023/06/04 09:04:44;;;;;;;6.50;3.90;;;22.30;99.40;;;;;;5085800;28;20181;-80
2023/06/04 09:07:14;;;;;;;7.87;3.93;;;22.50;96.90;;;;;;5083812;28;20206;-81
2023/06/04 09:09:42;;;;;;;5.80;3.70;;;22.70;98.90;;;;;;5085531;28;20175;-85
2023/06/04 09:12:21;;;;;;;9.67;3.93;;;22.70;97.10;;;;;;5087044;28;20204;-84
2023/06/04 09:14:48;;;;;;;9.60;4.13;;;23.20;93.40;;;;;;5085674;28;20171;-85
2023/06/04 09:17:15;;;;;;;5.70;3.67;;;23.10;92.60;;;;;;5091667;28;20199;-82
2023/06/04 09:19:41;;;;;;;6.97;3.90;;;;;;;;;;5094009;28;20189;-82
2023/06/04 09:22:06;;;;;;;3.87;3.47;;;23.30;91.40;;;;;;5103777;28;20172;-81
2023/06/04 09:24:46;;;;;;;4.80;3.37;;;23.10;91.50;;;;;;5099800;28;20172;-86
2023/06/04 09:27:18;;;;;;;4.80;3.67;;;23.30;92.70;;;;;;5081495;28;20552;-85
2023/06/04 09:29:51;;;;;;;6.53;3.70;;;23.30;92.20;;;;;;5100870;28;20157;-85
2023/06/04 09:32:27;;;;;;;6.57;4.03;;;23.50;91.90;;;;;;5100574;28;20171;-85
2023/06/04 09:35:12;;;;;;;6.07;3.77;;;23.40;90.70;;;;;;5100539;28;20677;-84
2023/06/04 09:37:38;;;;;;;6.37;3.60;;;23.00;90.70;;;;;;5081467;28;20218;-85
2023/06/04 09:40:06;;;;;;;5.97;4.07;;;23.10;92.20;;;;;;5081944;28;20181;-85
2023/06/04 09:42:42;;;;;;;7.23;3.77;;;23.40;90.30;;;;;;5083027;28;20185;-85
2023/06/04 09:45:09;;;;;;;6.93;3.50;;;23.70;93.10;;;;;;5082888;28;20175;-86
2023/06/04 09:47:43;;;;;;;4.93;3.70;;;24.10;91.80;;;;;;5101774;28;20214;-86
2023/06/04 09:50:12;;;;;;;9.20;3.83;;;24.30;91.60;;;;;;5081055;28;20221;-80
2023/06/04 09:52:39;;;;;;;4.87;3.77;;;24.10;90.10;;;;;;5099235;28;20168;-80
2023/06/04 09:55:26;;;;;;;6.73;3.73;;;24.30;88.70;;;;;;5083902;28;20204;-79
2023/06/04 09:57:53;;;;;;;4.17;3.53;;;24.60;91.50;;;;;;5085541;28;20291;-81
2023/06/04 10:00:20;;;;;;;5.87;3.43;;;24.60;90.10;;;;;;5084957;28;20212;-81
2023/06/04 10:02:47;;;;;;;5.33;3.93;;;24.90;85.60;;;;;;5084721;28;20249;-81
2023/06/04 10:05:14;;;;;;;4.43;4.00;;;25.20;86.40;;;;;;5109728;28;20168;-83
2023/06/04 10:07:44;;;;;;;3.90;3.40;;;25.40;87.30;;;;;;5103083;28;20213;-84
2023/06/04 10:10:19;;;;;;;5.53;3.63;;;25.50;85.60;;;;;;5110327;28;20208;-82
2023/06/04 10:12:50;;;;;;;4.07;3.20;;;25.80;86.50;;;;;;5104405;28;20185;-85
2023/06/04 10:15:17;;;;;;;3.53;3.13;;;26.00;80.70;;;;;;5101741;28;20244;-80
2023/06/04 10:17:48;;;;;;;3.60;3.30;;;26.10;77.00;;;;;;5100188;28;20278;-85
2023/06/04 10:20:14;;;;;;;7.30;3.60;;;26.10;84.20;;;;;;5099283;28;20205;-81
2023/06/04 10:22:41;;;;;;;4.70;2.97;;;26.00;73.70;;;;;;5099856;28;20176;-82
2023/06/04 10:25:10;;;;;;;6.33;3.80;;;25.90;82.00;;;;;;5100547;28;20180;-81
2023/06/04 10:27:36;;;;;;;7.37;3.70;;;26.00;77.40;;;;;;5083329;28;20225;-80
2023/06/04 10:30:04;;;;;;;8.50;3.83;;;25.60;74.90;;;;;;5081816;28;20178;-83
2023/06/04 10:32:30;;;;;;;5.30;3.50;;;25.70;87.50;;;;;;5100761;28;20177;-80
2023/06/04 10:34:57;;;;;;;6.30;3.40;;;26.20;84.60;;;;;;5102070;28;20533;-82
2023/06/04 10:37:26;;;;;;;4.97;3.23;;;26.50;79.50;;;;;;5103904;28;20280;-83
2023/06/04 10:39:54;;;;;;;3.87;3.50;;;26.70;84.10;;;;;;5083661;28;20647;-82
2023/06/04 10:42:21;;;;;;;4.37;3.33;;;27.00;77.00;;;;;;5088244;28;20637;-82
2023/06/04 10:44:55;;;;;;;5.67;3.77;;;27.20;74.50;;;;;;5101558;28;20186;-83
2023/06/04 10:47:26;;;;;;;4.57;3.10;;;27.50;76.70;;;;;;5106781;28;20204;-86
2023/06/04 10:49:53;;;;;;;4.40;3.40;;;27.10;72.50;;;;;;5097507;28;20182;-86
2023/06/04 10:52:19;;;;;;;4.37;2.93;;;27.40;68.30;;;;;;5094117;28;20217;-83
2023/06/04 10:54:48;;;;;;;3.00;2.70;;;27.70;77.00;;;;;;5100762;28;20264;-84
2023/06/04 10:57:18;;;;;;;3.27;2.97;;;27.80;69.10;;;;;;5079477;28;20295;-84
2023/06/04 10:59:56;;;;;;;4.60;3.37;;;27.80;75.80;;;;;;5099206;28;20528;-87
2023/06/04 11:02:23;;;;;;;3.63;3.03;;;27.80;67.80;;;;;;5097978;28;20179;-84
2023/06/04 11:05:05;;;;;;;8.13;3.43;;;27.90;74.00;;;;;;5080970;28;20176;-80
2023/06/04 11:07:51;;;;;;;3.90;3.27;;;28.00;73.50;;;;;;5098763;28;20201;-86
2023/06/04 11:10:18;;;;;;;4.37;3.23;;;28.10;75.20;;;;;;5097943;28;20195;-81
2023/06/04 11:12:50;;;;;;;6.20;3.50;;;27.80;64.70;;;;;;5078729;28;20637;-83
2023/06/04 11:15:16;;;;;;;5.57;3.50;;;27.50;69.50;;;;;;5079766;28;20191;-81
2023/06/04 11:18:00;;;;;;;5.13;3.37;;;27.20;66.30;;;;;;5082413;28;20202;-86
2023/06/04 11:20:26;;;;;;;3.60;3.30;;;26.90;65.40;;;;;;5083102;28;20586;-83
2023/06/04 11:22:55;;;;;;;6.77;3.70;;;27.00;72.20;;;;;;5101290;28;20176;-84
2023/06/04 11:25:23;;;;;;;6.73;3.30;;;27.20;69.40;;;;;;5102740;28;20172;-83
2023/06/04 11:27:50;;;;;;;4.33;3.33;;;27.30;74.10;;;;;;5080437;28;20213;-84
2023/06/04 11:30:16;;;;;;;6.90;3.40;;;27.70;74.10;;;;;;5081904;28;20174;-86
2023/06/04 11:32:42;;;;;;;8.27;3.73;;;28.40;66.60;;;;;;5082504;28;20174;-83
2023/06/04 11:35:08;;;;;;;8.73;3.33;;;28.30;71.20;;;;;;5081617;28;20178;-83
2023/06/04 11:37:34;;;;;;;3.97;3.03;;;28.40;74.50;;;;;;5099970;28;20209;-81
2023/06/04 11:40:05;;;;;;;3.53;3.17;;;28.30;66.00;;;;;;5081871;28;20183;-82
2023/06/04 11:42:31;;;;;;;4.00;3.40;;;28.60;61.90;;;;;;5099105;28;20159;-84
2023/06/04 11:44:57;;;;;;;8.13;3.40;;;28.30;59.40;;;;;;5099035;28;20569;-82
2023/06/04 11:47:23;;;;;;;4.67;3.50;;;27.90;62.90;;;;;;5081587;28;20347;-82
2023/06/04 11:49:55;;;;;;;5.77;3.77;;;27.60;66.10;;;;;;5099399;28;20175;-82
2023/06/04 11:52:21;;;;;;;5.83;3.57;;;27.00;62.30;;;;;;5081824;28;20168;-84
2023/06/04 11:54:48;;;;;;;3.73;3.10;;;26.90;64.60;;;;;;5082558;28;20179;-84
2023/06/04 11:57:13;;;;;;;6.40;3.50;;;26.90;64.30;;;;;;5081949;28;20221;-84
2023/06/04 11:59:39;;;;;;;4.67;3.30;;;27.10;62.40;;;;;;5098097;28;20184;-82
2023/06/04 12:02:07;;;;;;;5.87;3.60;;;27.00;71.50;;;;;;5097836;28;20689;-83
2023/06/04 12:04:33;;;;;;;5.17;3.70;;;27.20;72.60;;;;;;5079414;28;20182;-83
2023/06/04 12:07:01;;;;;;;4.97;3.67;;;27.40;65.50;;;;;;5098395;28;20634;-83
2023/06/04 12:09:34;;;;;;;3.83;3.27;;;27.20;62.30;;;;;;5079759;28;20228;-84
2023/06/04 12:12:04;;;;;;;7.87;4.27;;;26.90;68.30;;;;;;5079886;28;20169;-85
2023/06/04 12:14:29;;;;;;;5.87;3.47;;;26.70;67.30;;;;;;5086106;28;20185;-83
2023/06/04 12:17:06;;;;;;;4.60;3.57;;;26.60;70.20;;;;;;5111364;28;20172;-85
2023/06/04 12:19:33;;;;;;;4.90;3.73;;;26.80;69.20;;;;;;5093217;28;20210;-86
2023/06/04 12:22:05;;;;;;;8.63;4.03;;;27.20;72.10;;;;;;5099952;28;20189;-87
2023/06/04 12:24:46;;;;;;;5.53;3.70;;;27.20;66.90;;;;;;5086708;28;20180;-86
2023/06/04 12:27:12;;;;;;;5.63;3.67;;;26.90;65.80;;;;;;5082261;28;20217;-85
2023/06/04 12:29:37;;;;;;;7.80;3.33;;;26.60;63.40;;;;;;5082358;28;20271;-87
2023/06/04 12:32:08;;;;;;;6.47;3.63;;;26.30;64.20;;;;;;5082282;28;20172;-85
2023/06/04 12:34:38;;;;;;;4.50;3.50;;;25.90;67.30;;;;;;5082322;28;20204;-84
2023/06/04 12:37:05;;;;;;;4.33;3.93;;;25.60;66.70;;;;;;5082726;28;20685;-83
2023/06/04 12:39:36;;;;;;;5.20;4.07;;;25.50;64.50;;;;;;5082105;28;20275;-82
2023/06/04 12:42:03;;;;;;;9.47;3.97;;;25.60;65.70;;;;;;5100420;28;20169;-81
2023/06/04 12:44:28;;;;;;;8.40;4.10;;;25.60;73.60;;;;;;5081687;28;20209;-81
2023/06/04 12:46:54;;;;;;;6.20;3.87;;;25.50;65.30;;;;;;5100898;28;20188;-89
2023/06/04 12:49:20;;;;;;;5.20;3.50;;;25.00;71.70;;;;;;5081031;28;20184;-83
2023/06/04 12:51:46;;;;;;;9.17;3.90;;;24.70;70.70;;;;;;5099964;28;20251;-87
2023/06/04 12:54:12;;;;;;;4.43;3.60;;;24.60;68.20;;;;;;5082297;28;20222;-86
2023/06/04 12:56:40;;;;;;;5.73;3.60;;;24.30;70.30;;;;;;5083525;28;20264;-84
2023/06/04 12:59:06;;;;;;;6.13;4.10;;;24.30;71.10;;;;;;5082305;28;20179;-84
2023/06/04 13:01:32;;;;;;;6.23;3.47;;;24.30;72.40;;;;;;5101399;28;20162;-81
2023/06/04 13:03:57;;;;;;;3.90;3.37;;;24.50;69.30;;;;;;5083615;28;20538;-86
2023/06/04 13:06:23;;;;;;;4.73;3.70;;;24.70;70.70;;;;;;5081545;28;20174;-86
2023/06/04 13:08:49;;;;;;;5.20;3.63;;;24.60;67.00;;;;;;5084005;28;20202;-87
2023/06/04 13:11:15;;;;;;;5.07;3.30;;;24.40;67.50;;;;;;5083405;28;20175;-87
2023/06/04 13:13:41;;;;;;;9.13;3.63;;;24.30;72.40;;;;;;5084306;28;20210;-87
2023/06/04 13:16:07;;;;;;;5.93;4.00;;;24.10;71.00;;;;;;5102250;28;20173;-87
2023/06/04 13:18:33;;;;;;;6.70;3.53;;;23.90;67.80;;;;;;5083713;28;20199;-87
2023/06/04 13:20:59;;;;;;;9.40;3.57;;;23.80;69.10;;;;;;5084532;28;20176;-87
2023/06/04 13:23:24;;;;;;;6.83;4.20;;;23.80;71.60;;;;;;5085283;28;20199;-87
2023/06/04 13:25:50;;;;;;;4.57;3.93;;;23.80;71.00;;;;;;5085213;28;20180;-86
2023/06/04 13:28:17;;;;;;;8.70;3.67;;;23.80;70.30;;;;;;5085250;28;20313;-87
2023/06/04 13:30:43;;;;;;;5.73;3.60;;;23.60;70.50;;;;;;5088452;28;20256;-87
2023/06/04 13:33:09;;;;;;;5.43;3.93;;;23.40;69.50;;;;;;5108287;28;20174;-87
2023/06/04 13:35:35;;;;;;;7.03;3.90;;;23.20;74.30;;;;;;5089894;28;20173;-87
2023/06/04 13:38:02;;;;;;;4.87;4.03;;;23.00;69.70;;;;;;5093337;28;20291;-86
2023/06/04 13:40:28;;;;;;;5.53;3.87;;;22.90;70.20;;;;;;5092714;28;20195;-86
2023/06/04 13:42:53;;;;;;;5.30;3.57;;;22.80;69.60;;;;;;5088717;28;20268;-87
2023/06/04 13:45:20;;;;;;;7.00;3.57;;;22.80;71.80;;;;;;5094027;28;20257;-84
2023/06/04 13:47:48;;;;;;;5.30;3.37;;;22.80;73.30;;;;;;5095713;28;20205;-85
2023/06/04 13:50:14;;;;;;;6.17;3.63;;;;;;;;;;5098187;28;20211;-85
2023/06/04 13:52:40;;;;;;;5.83;3.70;;;22.90;71.20;;;;;;5101078;28;20193;-86
2023/06/04 13:55:06;;;;;;;8.47;3.60;;;23.10;74.30;;;;;;5111494;28;20242;-88
2023/06/04 13:57:32;;;;;;;5.23;3.40;;;23.30;70.70;;;;;;5094359;28;20559;-86
2023/06/04 13:59:58;;;;;;;6.53;4.00;;;23.30;70.70;;;;;;5088022;28;20176;-86
2023/06/04 14:02:23;;;;;;;6.73;4.27;;;23.60;69.60;;;;;;5092320;28;20269;-85
2023/06/04 14:04:53;;;;;;;4.70;3.57;;;23.60;78.00;;;;;;5089045;28;20595;-86
2023/06/04 14:07:19;;;;;;;4.77;3.87;;;23.70;73.20;;;;;;5103450;28;20602;-87
2023/06/04 14:09:45;;;;;;;5.50;3.60;;;23.90;68.70;;;;;;5084148;28;20174;-86
2023/06/04 14:12:11;;;;;;;4.40;3.70;;;24.00;72.00;;;;;;5100732;28;20170;-83
2023/06/04 14:14:37;;;;;;;6.53;3.73;;;23.90;68.60;;;;;;5098741;28;20173;-86
2023/06/04 14:17:04;;;;;;;6.07;3.50;;;23.70;69.90;;;;;;5098973;28;20227;-84
2023/06/04 14:19:30;;;;;;;4.77;3.70;;;23.40;69.00;;;;;;5098773;28;20255;-85
2023/06/04 14:21:56;;;;;;;6.20;3.87;;;23.00;67.80;;;;;;5081866;28;20185;-83
2023/06/04 14:24:22;;;;;;;4.87;3.30;;;23.00;67.80;;;;;;5082143;28;20274;-86
2023/06/04 14:26:47;;;;;;;6.03;4.07;;;22.80;69.80;;;;;;5082315;28;20740;-85
2023/06/04 14:29:13;;;;;;;4.17;3.13;;;22.80;69.40;;;;;;5081573;28;20192;-82
2023/06/04 14:31:39;;;;;;;6.30;3.70;;;22.90;70.90;;;;;;5081365;28;20168;-83
2023/06/04 14:34:07;;;;;;;4.50;3.37;;;22.90;69.30;;;;;;5080728;28;20177;-81
2023/06/04 14:36:32;;;;;;;6.27;3.40;;;22.70;70.20;;;;;;5080242;28;20179;-81
2023/06/04 14:38:58;;;;;;;6.87;3.70;;;22.70;70.80;;;;;;5100164;28;20173;-85
2023/06/04 14:41:24;;;;;;;4.03;3.63;;;22.60;72.60;;;;;;5079698;28;20176;-87
2023/06/04 14:43:50;;;;;;;5.20;3.63;;;22.40;69.60;;;;;;5078648;28;20184;-88
2023/06/04 14:46:16;;;;;;;5.77;3.63;;;22.30;70.40;;;;;;5080129;28;20205;-89
2023/06/04 14:48:42;;;;;;;4.33;3.57;;;22.10;68.10;;;;;;5082934;28;20207;-89
2023/06/04 14:51:08;;;;;;;5.33;3.93;;;22.20;70.00;;;;;;5096758;28;20204;-88
2023/06/04 14:53:33;;;;;;;5.10;3.60;;;22.30;72.80;;;;;;5077792;28;20176;-87
2023/06/04 14:55:59;;;;;;;4.23;3.53;;;22.50;72.30;;;;;;5077949;28;20207;-87
2023/06/04 14:58:25;;;;;;;5.87;3.80;;;22.70;72.90;;;;;;5077409;28;20290;-87
2023/06/04 15:00:50;;;;;;;10.27;4.00;;;22.80;67.90;;;;;;5078120;28;20187;-87
2023/06/04 15:03:16;;;;;;;5.00;3.43;;;22.80;70.80;;;;;;5078008;28;20192;-87
2023/06/04 15:05:42;;;;;;;5.73;3.37;;;22.80;72.00;;;;;;5096184;28;20625;-86
2023/06/04 15:08:08;;;;;;;6.37;3.97;;;22.70;71.70;;;;;;5096750;28;20209;-88
2023/06/04 15:10:34;;;;;;;4.40;3.40;;;22.70;71.50;;;;;;5097143;28;20591;-89
2023/06/04 15:13:00;;;;;;;4.13;2.97;;;22.50;69.40;;;;;;5078412;28;20649;-84
2023/06/04 15:15:26;;;;;;;6.23;3.53;;;22.60;70.10;;;;;;5079982;28;20204;-85
2023/06/04 15:17:52;;;;;;;6.80;3.40;;;22.50;72.50;;;;;;5079776;28;20200;-85
2023/06/04 15:20:18;;;;;;;5.20;3.77;;;22.50;70.00;;;;;;5082487;28;20732;-83
2023/06/04 15:22:44;;;;;;;4.43;3.53;;;22.40;69.90;;;;;;5079514;28;20176;-84
2023/06/04 15:25:10;;;;;;;5.97;3.70;;;22.40;71.20;;;;;;5081137;28;20196;-82
2023/06/04 15:27:35;;;;;;;4.83;3.23;;;22.50;71.00;;;;;;5090253;28;20280;-84
2023/06/04 15:30:02;;;;;;;5.07;3.70;;;22.60;70.80;;;;;;5082142;28;20172;-84
2023/06/04 15:32:28;;;;;;;7.37;3.50;;;22.80;71.30;;;;;;5083348;28;20293;-84
2023/06/04 15:34:53;;;;;;;3.83;3.13;;;23.00;69.10;;;;;;5082646;28;20175;-82
2023/06/04 15:37:19;;;;;;;4.10;3.47;;;23.10;73.50;;;;;;5097724;28;20196;-83
2023/06/04 15:39:44;;;;;;;15.17;3.90;;;23.20;73.50;;;;;;5098862;28;20256;-84
2023/06/04 15:42:11;;;;;;;10.60;4.43;;;23.20;70.00;;;;;;5081506;28;20183;-83
2023/06/04 15:44:37;;;;;;;6.80;3.40;;;23.20;74.70;;;;;;5081927;28;20172;-83
2023/06/04 15:47:03;;;;;;;5.30;4.10;;;23.10;71.10;;;;;;5099997;28;20280;-83
2023/06/04 15:49:29;;;;;;;6.17;3.83;;;23.10;71.90;;;;;;5083880;28;20171;-84
2023/06/04 15:51:55;;;;;;;4.67;3.67;;;23.10;73.70;;;;;;5083550;28;20205;-82
2023/06/04 15:54:20;;;;;;;4.30;3.57;;;22.90;68.50;;;;;;5101055;28;20172;-82
2023/06/04 15:56:48;;;;;;;7.17;3.60;;;22.80;73.80;;;;;;5082941;28;20670;-84
2023/06/04 15:59:14;;;;;;;7.67;5.73;;;22.70;74.40;;;;;;5083547;28;20200;-83
2023/06/04 16:01:44;;;;;;;5.93;4.67;;;22.50;70.50;;;;;;5101729;28;20175;-82
2023/06/04 16:04:11;;;;;;;6.87;4.60;;;22.30;71.10;;;;;;5083493;28;20517;-82
2023/06/04 16:06:37;;;;;;;5.00;4.00;;;22.10;75.80;;;;;;5084437;28;20208;-82
2023/06/04 16:09:05;;;;;;;4.73;3.67;;;22.00;70.30;;;;;;5105138;28;20196;-83
2023/06/04 16:11:31;;;;;;;8.77;4.70;;;21.90;70.60;;;;;;5093070;28;20176;-83
2023/06/04 16:13:57;;;;;;;4.63;3.93;;;21.80;75.30;;;;;;5087783;28;20217;-82
2023/06/04 16:16:22;;;;;;;9.37;4.37;;;21.90;73.00;;;;;;5086184;28;20202;-83
2023/06/04 16:18:48;;;;;;;8.10;4.40;;;21.90;71.90;;;;;;5083740;28;20180;-83
2023/06/04 16:21:15;;;;;;;7.67;4.00;;;21.80;71.00;;;;;;5100749;28;20178;-82
2023/06/04 16:23:41;;;;;;;7.27;3.77;;;21.70;70.40;;;;;;5082473;28;20180;-83
2023/06/04 16:26:08;;;;;;;4.47;3.57;;;21.60;72.80;;;;;;5082185;28;20833;-82
2023/06/04 16:28:33;;;;;;;8.00;4.37;;;21.40;70.60;;;;;;5101521;28;20223;-84
2023/06/04 16:30:59;;;;;;;6.43;3.83;;;21.30;72.90;;;;;;5084609;28;20176;-81
2023/06/04 16:33:25;;;;;;;6.87;3.90;;;21.20;73.90;;;;;;5086305;28;20172;-81
2023/06/04 16:35:51;;;;;;;3.90;3.17;;;21.10;72.30;;;;;;5104667;28;20168;-83
2023/06/04 16:38:16;;;;;;;5.97;3.60;;;21.00;73.60;;;;;;5083908;28;20608;-82
2023/06/04 16:40:42;;;;;;;4.83;3.53;;;20.90;74.20;;;;;;5102726;28;20629;-81
2023/06/04 16:43:08;;;;;;;3.97;3.47;;;20.80;74.90;;;;;;5103514;28;20250;-85
2023/06/04 16:45:34;;;;;;;5.70;3.53;;;20.80;74.40;;;;;;5103148;28;20172;-80
2023/06/04 16:48:00;;;;;;;10.07;5.40;;;20.80;72.90;;;;;;5085178;28;20207;-83
2023/06/04 16:50:25;;;;;;;5.60;3.80;;;20.70;72.70;;;;;;5103134;28;20191;-84
2023/06/04 16:52:52;;;;;;;3.87;3.20;;;20.50;73.70;;;;;;5104038;28;20168;-86
2023/06/04 16:55:18;;;;;;;8.30;3.40;;;20.50;72.80;;;;;;5086176;28;20164;-85
2023/06/04 16:57:44;;;;;;;4.13;3.60;;;20.50;74.50;;;;;;5086116;28;20196;-85
2023/06/04 17:00:10;;;;;;;4.10;3.43;;;20.40;74.50;;;;;;5084697;28;20190;-84
2023/06/04 17:02:35;;;;;;;6.47;3.80;;;20.40;75.10;;;;;;5087331;28;20184;-85
2023/06/04 17:05:01;;;;;;;4.43;3.73;;;20.40;76.00;;;;;;5105521;28;20183;-84
2023/06/04 17:07:31;;;;;;;5.97;3.27;;;20.30;75.10;;;;;;5081563;28;20218;-85
2023/06/04 17:09:57;;;;;;;5.13;3.50;;;20.30;74.40;;;;;;5081842;28;20263;-84
2023/06/04 17:12:23;;;;;;;5.50;3.40;;;20.30;73.70;;;;;;5082890;28;20213;-85
2023/06/04 17:14:48;;;;;;;4.93;3.60;;;20.20;74.30;;;;;;5100424;28;20180;-84
2023/06/04 17:17:14;;;;;;;4.53;3.53;;;20.20;75.60;;;;;;5082251;28;20207;-85
2023/06/04 17:19:43;;;;;;;11.10;3.63;;;20.10;74.70;;;;;;5083644;28;20199;-86
2023/06/04 17:22:09;;;;;;;4.73;3.60;;;20.00;76.10;;;;;;5103017;28;20175;-80
2023/06/04 17:24:35;;;;;;;4.97;3.23;;;20.00;76.80;;;;;;5085654;28;20282;-81
2023/06/04 17:27:00;;;;;;;6.47;3.83;;;20.00;76.50;;;;;;5101147;28;20618;-85
2023/06/04 17:29:26;;;;;;;4.17;3.47;;;19.90;76.50;;;;;;5083918;28;20660;-86
2023/06/04 17:31:52;;;;;;;7.00;3.50;;;19.90;76.30;;;;;;5103720;28;20687;-85
2023/06/04 18:04:19;;;;;;;5.33;3.23;;;19.50;78.70;;;;;;5152222;27;20275;-85
2023/06/04 18:14:51;;;;;;;3.90;3.10;;;19.40;78.90;;;;;;5147112;27;20379;-85
2023/06/04 18:28:42;;;;;;;4.67;2.80;;;;;;;;;;5123971;27;20322;-86
